Spring Valley, CA

11:06 AM PDT on August 27, 2014 (GMT -0700)
Miramar Marine Corps Air Station-Mitscher | Change Station
CLOSE
Current Station
Airport
Location: Miramar MCAS,
Elevation: 476 ft
Nearby Weather Stations

Elev 476 ft 32.86 °N, 117.14 °W | Updated 11 minutes ago

Clear
Clear
89 °F
Feels Like 87 °F
N
5
Wind Variable Wind from Variable

Today
High -- | Low -- °F
--% Chance of Precip.
Yesterday
High -- | Low -- °F
Precip. -- in
6:19 AM 7:18 PM
Waxing Crescent, 4% visible
Pressure 30.01 in
Visibility 10.0 miles
Clouds Clear
Heat Index 87 °F
Dew Point 54 °F
Humidity 30%
Rainfall 0.00 in
Snow Depth Not available.
UV 8 out of 12
Pollen 6.80 out of 12
PM2.5 Moderate
Flu Activity Not available.
METAR KNKX 271755Z VRB04KT 10SM CLR 32/12 A3003 RMK AO2 SLP163 T03170122 10317 20178 50004

More Conditions Fewer Conditions

Pressure 30.01 in
Visibility 10.0 miles
Clouds Clear
Heat Index 87 °F
Dew Point 54 °F
Humidity 30%
Rainfall 0.00 in
Snow Depth Not available.
UV 8 out of 12
Pollen 6.80 out of 12
PM2.5 Moderate
Flu Activity Not available.
METAR KNKX 271755Z VRB04KT 10SM CLR 32/12 A3003 RMK AO2 SLP163 T03170122 10317 20178 50004

More Conditions Fewer Conditions

10-Day Weather Forecast

Almanac

Astronomy

Aug. 27, 2014 Rise Set
Actual Time 6:19 AM PDT 7:18 PM PDT
Civil Twilight 5:54 AM PDT 7:44 PM PDT
Nautical Twilight 5:24 AM PDT 8:14 PM PDT
Astronomical Twilight 4:53 AM PDT 8:44 PM PDT
Moon 8:10 AM PDT 8:23 PM PDT
Length of Visible Light 13h 50m
Length of Day
12h 59m
Tomorrow will be 1m 54s shorter.
Waxing Crescent, 4% of the Moon is Illuminated
Today
Waxing Crescent
Sep 2
First Quarter
Sep 8
Full
Sep 15
Last Quarter
Sep 24
New

Today's Extremes

State Highs State Lows

Community

WunderPhotos

Upload Photos

1,747,747 photos uploaded!

Nearby

Air Quality

  Air Quality AQ Index Pollutant
Yesterday Moderate
PM2.5
Current Moderate
PM2.5
Wednesday Good
PM2.5
Wednesday Good
OZONE

Snow Depth

Station Depth Elevation
Summit Meadow 0 in 9122 ft
Blue Lakes 0 in 8000 ft
Forestdale Creek 0 in 8029 ft
Hagan's Meadow 0 in 8000 ft
Tahoe City Cross 0 in 6750 ft

Earthquake Activity

City Distance Mag. Time & Date
San Fernando, California 132 miles 2.5 4:57 AM PDT
2014-08-26
Progreso, Mexico 75 miles 2.6 10:55 PM PDT
2014-08-25
San Pedro, California 99 miles 3.2 7:50 PM PDT
2014-08-24
Minimum magnitude displayed is 2.5.

Coastal Water Temperatures

Place Temperature
La Jolla, CA 71.1 °F
San Diego, CA 73.9 °F

Nearby Weather Stations